Nada, Texas
Current Conditions -  °F | °C
As of 2:35 PM on Saturday 25 Oct 2014 (Local Time) from KELA Reporting Station
Clear Clear  
Wind Chill: 84°   Ceiling: Unl
Heat Index: 84°   Visibility: 10mi
Dew Point: 60°   Wind: 3mph
Humidity: 45%   Direction: 220°SW
Pressure: 30.1"   Gusts: NA
Location:  29.41°N, 96.39°W
Report Text: KELA 251935Z AUTO 22003KT 10SM CLR 29/16 A3010 RMK AO2 T02870157
Loading
Personal Weather Stations






























Interactive Weather Map
Tropical Storm Tracking
New forecast layout! Learn more

10-Day Weather Forecast

Advertisements
Track Severe Weather on mobile